etsfs.com

SPEED LOG BR GSoares

SPEED LOG BR

Online ETSFS
  • Iniciou dia:: 2019-11-28 as :03:08:18
  • Finalizou dia: as:03:59:23
  • Saiu de:Kiel Empresa: EuroGoodies
  • Para: Genève Empresa: SellPlan
  • Carga:Carne Pesando: 21 t. Frete :44785
  • Código Viagem:1804976
  • Fabricante:Mercedes-Benz Modelo:Actros
  • Combustivel Inicio/Fim: 481 L / 76 L / Consumo: 405 L - Media 2.85 KM/L
  • Odometro Inicio/Fim: 277842 / 278996
  • Distancia Estimada 1154 Km Distancia Balsa: 0
  • km Rodado: 1154 Km - Ponto$ : $57.7
  • Tempo Total da Viagem 51.00 Min. / Média de KM/Min : 22.63
Histórico Viagem
Data H.Jogo Vel. Odômetro RPM Marcha Diesel Engine Cabine Pneus Chassis Trailer
28/11/2019-03:08:15 14:35 0 277842 550.9369 -1 481 0 0 0 0 0 0
28/11/2019-03:09:25 14:42 0 277842 502.256 0 481 0 0 0 0 0 0
28/11/2019-03:12:15 14:59 90 277872 1254.441 12 464 0 0 0 0 0 0
28/11/2019-03:13:18 15:05 89 277902 1251.553 12 454 0 0 0 0 0 0
28/11/2019-03:14:22 15:12 88 277932 1231.073 12 446 0 0 0 0 0 0
28/11/2019-03:15:29 15:18 87 277962 1226.091 12 434 0 0 0 0 0 0
28/11/2019-03:16:33 15:25 90 277992 1252.497 12 425 0 0 0 0 0 0
28/11/2019-03:17:37 15:31 90 278022 1256.27 12 411 0 0 0 0 0 0
28/11/2019-03:18:41 15:37 89 278052 1251.582 12 402 0 0 0 0 0 0
28/11/2019-03:20:07 15:46 55 278082 1238.444 10 399 0 0 0 0 0 0
28/11/2019-03:21:17 15:53 89 278112 1251.916 12 384 0 0 0 0 0 0
28/11/2019-03:22:22 16:00 92 278142 1275.325 12 372 0 0 0 0 0 0
28/11/2019-03:23:28 16:06 82 278172 1155.288 12 362 0 0 0 0 0 0
28/11/2019-03:24:35 16:13 84 278202 1186.758 12 346 0 0 0 0 0 0
28/11/2019-03:25:43 16:20 89 278232 1252.378 12 330 0 0 0 0 0 0
28/11/2019-03:26:51 16:26 96 278262 1328.937 12 317 0 0 0 0 0 0
28/11/2019-03:27:59 16:33 67 278292 1500.806 10 304 0 0 0 0 0 0
28/11/2019-03:29:10 16:40 94 278322 1314.424 12 292 0 0 0 0 0 0
28/11/2019-03:29:12 16:41 91 278323 1269.428 12 292 0 0 0 0 0 1
28/11/2019-03:29:12 16:41 91 278323 1267.666 12 292 0 0 0 0 0 1
28/11/2019-03:30:15 16:47 85 278352 1192.987 12 282 0 0 0 1 0 1
28/11/2019-03:31:20 16:53 80 278382 1124.32 12 274 0 0 0 1 0 1
28/11/2019-03:32:22 17:00 95 278412 1314.75 12 273 0 0 0 1 0 1
28/11/2019-03:33:25 17:06 89 278442 1241.748 12 264 0 0 0 1 0 1
28/11/2019-03:35:08 17:16 43 278472 598.5766 12 264 0 0 0 1 0 1
28/11/2019-03:38:04 17:34 0 278493 0 0 262 0 0 0 1 0 1
28/11/2019-03:38:43 17:38 76 278502 1383.429 11 252 0 0 0 1 0 1
28/11/2019-03:39:50 17:44 90 278532 1257.382 12 236 0 0 0 1 0 1
28/11/2019-03:40:54 17:51 92 278562 1280.662 12 226 0 0 0 1 0 1
28/11/2019-03:41:57 17:57 91 278592 1268.113 12 219 0 0 0 1 0 1
28/11/2019-03:43:00 18:03 88 278622 1244.35 12 210 0 0 0 1 0 1
28/11/2019-03:44:04 18:10 84 278652 1184.388 12 201 0 0 0 1 0 1
28/11/2019-03:45:09 18:16 89 278682 1245.499 12 191 0 0 0 1 0 1
28/11/2019-03:46:13 18:23 84 278712 1523.625 11 179 0 0 0 1 0 1
28/11/2019-03:47:31 18:30 89 278742 1254.257 12 163 0 0 0 1 0 1
28/11/2019-03:48:35 18:37 89 278772 1253.109 12 150 0 0 0 1 0 1
28/11/2019-03:49:38 18:43 89 278802 1253.662 12 140 0 0 0 1 0 1
28/11/2019-03:50:00 18:45 90 278812 1254.391 12 137 0 0 0 1 0 2
28/11/2019-03:50:00 18:45 90 278812 1254.322 12 137 0 0 0 1 0 2
28/11/2019-03:50:41 18:49 90 278832 1250.188 12 131 0 0 0 1 0 2
28/11/2019-03:51:45 18:56 90 278862 1254.519 12 122 0 0 0 2 0 2
28/11/2019-03:52:50 19:02 90 278892 1255.229 12 111 0 0 0 2 0 2
28/11/2019-03:54:11 19:10 89 278922 1255.65 12 100 0 0 0 2 0 2
28/11/2019-03:55:14 19:17 89 278952 1256.63 12 90 0 0 0 2 0 2
28/11/2019-03:56:30 19:24 65 278982 1467.961 10 82 0 0 0 2 0 2
28/11/2019-03:57:00 19:27 59 278993 1066.64 11 77 0 0 0 2 0 2
28/11/2019-03:59:24 19:41 0 278996 0 0 76 0 0 0 2 0 0
Multas
Data Jogo Hora Jogo Data Hora Limite Tolerância Vel. Multa
Não existe Multa

Sobre nós

Pensando na facilidade e comodidade de criar sua empresa virtual e armazenar seus registros, o etsfs passou a oferecer um aplicativo que ao executá-lo juntamente com um simulador descrito no menu,você poderá registrar suas viagens automaticamente em nosso site sem nenhum problema,FAÇA SEU REGISTRO!

Redes Sociais
Doações

Contatos